sensor_id;sensor_type;location;lat;lon;timestamp;P1;durP1;ratioP1;P2;durP2;ratioP2
28988;SDS011;16089;59.952;10.818;2023-12-29T00:00:19;5.38;;;1.85;;
28988;SDS011;16089;59.952;10.818;2023-12-29T00:02:45;4.07;;;1.80;;
28988;SDS011;16089;59.952;10.818;2023-12-29T00:05:12;4.93;;;1.95;;
28988;SDS011;16089;59.952;10.818;2023-12-29T00:07:38;5.70;;;2.05;;
28988;SDS011;16089;59.952;10.818;2023-12-29T00:10:06;7.85;;;2.38;;
28988;SDS011;16089;59.952;10.818;2023-12-29T00:12:33;6.07;;;1.70;;
28988;SDS011;16089;59.952;10.818;2023-12-29T00:14:59;4.43;;;1.48;;
28988;SDS011;16089;59.952;10.818;2023-12-29T00:17:26;6.20;;;2.03;;
28988;SDS011;16089;59.952;10.818;2023-12-29T00:19:53;3.92;;;1.50;;
28988;SDS011;16089;59.952;10.818;2023-12-29T00:22:19;4.75;;;1.70;;
28988;SDS011;16089;59.952;10.818;2023-12-29T00:24:46;4.78;;;1.75;;
28988;SDS011;16089;59.952;10.818;2023-12-29T00:27:14;6.35;;;1.45;;
28988;SDS011;16089;59.952;10.818;2023-12-29T00:29:40;4.57;;;1.45;;
28988;SDS011;16089;59.952;10.818;2023-12-29T00:32:07;6.30;;;1.50;;
28988;SDS011;16089;59.952;10.818;2023-12-29T00:34:33;7.00;;;1.88;;
28988;SDS011;16089;59.952;10.818;2023-12-29T00:37:02;4.32;;;1.45;;
28988;SDS011;16089;59.952;10.818;2023-12-29T00:39:28;5.00;;;1.42;;
28988;SDS011;16089;59.952;10.818;2023-12-29T00:42:03;3.65;;;1.40;;
28988;SDS011;16089;59.952;10.818;2023-12-29T00:44:31;4.75;;;1.60;;
28988;SDS011;16089;59.952;10.818;2023-12-29T00:46:57;9.35;;;1.70;;
28988;SDS011;16089;59.952;10.818;2023-12-29T00:49:24;5.63;;;1.80;;
28988;SDS011;16089;59.952;10.818;2023-12-29T00:51:50;3.67;;;1.30;;
28988;SDS011;16089;59.952;10.818;2023-12-29T00:54:17;4.88;;;1.70;;
28988;SDS011;16089;59.952;10.818;2023-12-29T00:56:47;6.05;;;1.83;;
28988;SDS011;16089;59.952;10.818;2023-12-29T00:59:14;4.18;;;1.20;;
28988;SDS011;16089;59.952;10.818;2023-12-29T01:01:41;2.97;;;1.58;;
28988;SDS011;16089;59.952;10.818;2023-12-29T01:04:09;3.35;;;1.38;;
28988;SDS011;16089;59.952;10.818;2023-12-29T01:06:36;3.67;;;1.60;;
28988;SDS011;16089;59.952;10.818;2023-12-29T01:09:02;4.97;;;1.60;;
28988;SDS011;16089;59.952;10.818;2023-12-29T01:11:28;3.72;;;1.42;;
28988;SDS011;16089;59.952;10.818;2023-12-29T01:13:55;5.70;;;1.70;;
28988;SDS011;16089;59.952;10.818;2023-12-29T01:16:21;5.55;;;1.60;;
28988;SDS011;16089;59.952;10.818;2023-12-29T01:18:49;4.82;;;1.63;;
28988;SDS011;16089;59.952;10.818;2023-12-29T01:21:16;3.85;;;1.35;;
28988;SDS011;16089;59.952;10.818;2023-12-29T01:23:42;5.82;;;1.80;;
28988;SDS011;16089;59.952;10.818;2023-12-29T01:26:08;3.33;;;1.20;;
28988;SDS011;16089;59.952;10.818;2023-12-29T01:28:35;4.55;;;1.30;;
28988;SDS011;16089;59.952;10.818;2023-12-29T01:31:01;6.25;;;1.98;;
28988;SDS011;16089;59.952;10.818;2023-12-29T01:33:27;4.28;;;1.33;;
28988;SDS011;16089;59.952;10.818;2023-12-29T01:35:55;5.40;;;1.65;;
28988;SDS011;16089;59.952;10.818;2023-12-29T01:38:22;3.38;;;1.33;;
28988;SDS011;16089;59.952;10.818;2023-12-29T01:40:48;3.55;;;1.48;;
28988;SDS011;16089;59.952;10.818;2023-12-29T01:43:14;4.40;;;1.27;;
28988;SDS011;16089;59.952;10.818;2023-12-29T01:45:41;3.92;;;1.48;;
28988;SDS011;16089;59.952;10.818;2023-12-29T01:48:07;3.80;;;1.20;;
28988;SDS011;16089;59.952;10.818;2023-12-29T01:50:34;6.13;;;1.48;;
28988;SDS011;16089;59.952;10.818;2023-12-29T01:53:03;5.70;;;1.90;;
28988;SDS011;16089;59.952;10.818;2023-12-29T01:55:29;4.28;;;1.20;;
28988;SDS011;16089;59.952;10.818;2023-12-29T01:57:56;3.83;;;1.38;;
28988;SDS011;16089;59.952;10.818;2023-12-29T02:00:23;4.32;;;1.40;;
28988;SDS011;16089;59.952;10.818;2023-12-29T02:02:49;2.80;;;1.10;;
28988;SDS011;16089;59.952;10.818;2023-12-29T02:05:17;5.63;;;1.40;;
28988;SDS011;16089;59.952;10.818;2023-12-29T02:07:43;5.75;;;1.17;;
28988;SDS011;16089;59.952;10.818;2023-12-29T02:10:11;3.53;;;1.10;;
28988;SDS011;16089;59.952;10.818;2023-12-29T02:12:40;5.25;;;1.25;;
28988;SDS011;16089;59.952;10.818;2023-12-29T02:15:07;3.65;;;1.05;;
28988;SDS011;16089;59.952;10.818;2023-12-29T02:17:35;3.05;;;1.10;;
28988;SDS011;16089;59.952;10.818;2023-12-29T02:20:02;3.67;;;1.15;;
28988;SDS011;16089;59.952;10.818;2023-12-29T02:22:29;3.22;;;0.90;;
28988;SDS011;16089;59.952;10.818;2023-12-29T02:24:57;4.38;;;1.05;;
28988;SDS011;16089;59.952;10.818;2023-12-29T02:27:25;3.33;;;1.02;;
28988;SDS011;16089;59.952;10.818;2023-12-29T02:29:58;2.28;;;1.10;;
28988;SDS011;16089;59.952;10.818;2023-12-29T02:32:28;3.05;;;0.90;;
28988;SDS011;16089;59.952;10.818;2023-12-29T02:34:56;2.65;;;0.70;;
28988;SDS011;16089;59.952;10.818;2023-12-29T02:37:23;3.97;;;1.00;;
28988;SDS011;16089;59.952;10.818;2023-12-29T02:39:50;4.18;;;1.30;;
28988;SDS011;16089;59.952;10.818;2023-12-29T02:42:18;3.28;;;0.90;;
28988;SDS011;16089;59.952;10.818;2023-12-29T02:44:45;3.83;;;0.88;;
28988;SDS011;16089;59.952;10.818;2023-12-29T02:47:11;2.22;;;0.90;;
28988;SDS011;16089;59.952;10.818;2023-12-29T02:49:37;4.40;;;1.17;;
28988;SDS011;16089;59.952;10.818;2023-12-29T02:52:04;2.33;;;0.90;;
28988;SDS011;16089;59.952;10.818;2023-12-29T02:54:31;5.63;;;0.90;;
28988;SDS011;16089;59.952;10.818;2023-12-29T02:56:57;3.00;;;1.05;;
28988;SDS011;16089;59.952;10.818;2023-12-29T02:59:25;2.60;;;0.77;;
28988;SDS011;16089;59.952;10.818;2023-12-29T03:01:51;3.13;;;0.93;;
28988;SDS011;16089;59.952;10.818;2023-12-29T03:04:18;1.80;;;0.75;;
28988;SDS011;16089;59.952;10.818;2023-12-29T03:06:44;3.38;;;0.88;;
28988;SDS011;16089;59.952;10.818;2023-12-29T03:09:11;3.40;;;0.90;;
28988;SDS011;16089;59.952;10.818;2023-12-29T03:11:36;2.67;;;0.70;;
28988;SDS011;16089;59.952;10.818;2023-12-29T03:14:02;1.92;;;0.70;;
28988;SDS011;16089;59.952;10.818;2023-12-29T03:16:30;1.40;;;0.57;;
28988;SDS011;16089;59.952;10.818;2023-12-29T03:18:57;1.85;;;0.60;;
28988;SDS011;16089;59.952;10.818;2023-12-29T03:21:23;2.97;;;0.98;;
28988;SDS011;16089;59.952;10.818;2023-12-29T03:23:50;1.95;;;0.60;;
28988;SDS011;16089;59.952;10.818;2023-12-29T03:26:16;1.58;;;0.50;;
28988;SDS011;16089;59.952;10.818;2023-12-29T03:28:42;3.50;;;0.60;;
28988;SDS011;16089;59.952;10.818;2023-12-29T03:31:09;1.42;;;0.60;;
28988;SDS011;16089;59.952;10.818;2023-12-29T03:33:37;3.83;;;1.45;;
28988;SDS011;16089;59.952;10.818;2023-12-29T03:36:03;3.22;;;0.60;;
28988;SDS011;16089;59.952;10.818;2023-12-29T03:38:30;1.92;;;0.70;;
28988;SDS011;16089;59.952;10.818;2023-12-29T03:40:58;2.42;;;0.60;;
28988;SDS011;16089;59.952;10.818;2023-12-29T03:43:24;2.13;;;0.60;;
28988;SDS011;16089;59.952;10.818;2023-12-29T03:45:51;3.47;;;0.90;;
28988;SDS011;16089;59.952;10.818;2023-12-29T03:48:17;1.60;;;0.70;;
28988;SDS011;16089;59.952;10.818;2023-12-29T03:50:45;1.95;;;0.50;;
28988;SDS011;16089;59.952;10.818;2023-12-29T03:53:11;2.13;;;0.80;;
28988;SDS011;16089;59.952;10.818;2023-12-29T03:55:39;4.13;;;0.95;;
28988;SDS011;16089;59.952;10.818;2023-12-29T03:58:06;1.65;;;0.60;;
28988;SDS011;16089;59.952;10.818;2023-12-29T04:00:32;1.55;;;0.70;;
28988;SDS011;16089;59.952;10.818;2023-12-29T04:03:00;3.95;;;0.70;;
28988;SDS011;16089;59.952;10.818;2023-12-29T04:05:26;1.65;;;0.60;;
28988;SDS011;16089;59.952;10.818;2023-12-29T04:07:54;2.10;;;0.63;;
28988;SDS011;16089;59.952;10.818;2023-12-29T04:10:20;1.58;;;0.60;;
28988;SDS011;16089;59.952;10.818;2023-12-29T04:12:47;3.42;;;0.75;;
28988;SDS011;16089;59.952;10.818;2023-12-29T04:15:13;6.05;;;0.80;;
28988;SDS011;16089;59.952;10.818;2023-12-29T04:17:39;1.77;;;0.60;;
28988;SDS011;16089;59.952;10.818;2023-12-29T04:20:06;2.03;;;0.73;;
28988;SDS011;16089;59.952;10.818;2023-12-29T04:22:32;2.97;;;0.73;;
28988;SDS011;16089;59.952;10.818;2023-12-29T04:25:01;2.33;;;0.60;;
28988;SDS011;16089;59.952;10.818;2023-12-29T04:27:27;1.17;;;0.43;;
28988;SDS011;16089;59.952;10.818;2023-12-29T04:29:54;2.17;;;0.60;;
28988;SDS011;16089;59.952;10.818;2023-12-29T04:32:20;1.92;;;0.52;;
28988;SDS011;16089;59.952;10.818;2023-12-29T04:34:46;2.75;;;0.73;;
28988;SDS011;16089;59.952;10.818;2023-12-29T04:37:13;3.05;;;0.90;;
28988;SDS011;16089;59.952;10.818;2023-12-29T04:39:39;1.48;;;0.50;;
28988;SDS011;16089;59.952;10.818;2023-12-29T04:42:07;1.88;;;0.57;;
28988;SDS011;16089;59.952;10.818;2023-12-29T04:44:33;3.50;;;0.88;;
28988;SDS011;16089;59.952;10.818;2023-12-29T04:47:00;2.05;;;0.50;;
28988;SDS011;16089;59.952;10.818;2023-12-29T04:49:26;3.35;;;0.68;;
28988;SDS011;16089;59.952;10.818;2023-12-29T04:51:53;2.17;;;0.60;;
28988;SDS011;16089;59.952;10.818;2023-12-29T04:54:19;3.08;;;0.70;;
28988;SDS011;16089;59.952;10.818;2023-12-29T04:56:45;1.20;;;0.63;;
28988;SDS011;16089;59.952;10.818;2023-12-29T04:59:14;1.58;;;0.50;;
28988;SDS011;16089;59.952;10.818;2023-12-29T05:01:41;1.65;;;0.57;;
28988;SDS011;16089;59.952;10.818;2023-12-29T05:04:07;1.58;;;0.55;;
28988;SDS011;16089;59.952;10.818;2023-12-29T05:06:33;1.40;;;0.50;;
28988;SDS011;16089;59.952;10.818;2023-12-29T05:09:00;2.72;;;0.70;;
28988;SDS011;16089;59.952;10.818;2023-12-29T05:11:26;2.50;;;0.63;;
28988;SDS011;16089;59.952;10.818;2023-12-29T05:13:53;2.30;;;0.60;;
28988;SDS011;16089;59.952;10.818;2023-12-29T05:16:20;2.20;;;0.55;;
28988;SDS011;16089;59.952;10.818;2023-12-29T05:18:47;3.42;;;0.65;;
28988;SDS011;16089;59.952;10.818;2023-12-29T05:21:14;1.88;;;0.60;;
28988;SDS011;16089;59.952;10.818;2023-12-29T05:23:40;1.58;;;0.57;;
28988;SDS011;16089;59.952;10.818;2023-12-29T05:26:07;3.10;;;0.60;;
28988;SDS011;16089;59.952;10.818;2023-12-29T05:28:33;2.25;;;0.60;;
28988;SDS011;16089;59.952;10.818;2023-12-29T05:31:00;1.42;;;0.50;;
28988;SDS011;16089;59.952;10.818;2023-12-29T05:33:29;3.15;;;0.60;;
28988;SDS011;16089;59.952;10.818;2023-12-29T05:35:56;1.58;;;0.50;;
28988;SDS011;16089;59.952;10.818;2023-12-29T05:38:22;1.92;;;0.45;;
28988;SDS011;16089;59.952;10.818;2023-12-29T05:40:49;2.03;;;0.60;;
28988;SDS011;16089;59.952;10.818;2023-12-29T05:43:16;1.88;;;0.60;;
28988;SDS011;16089;59.952;10.818;2023-12-29T05:45:42;1.50;;;0.57;;
28988;SDS011;16089;59.952;10.818;2023-12-29T05:48:08;3.10;;;0.90;;
28988;SDS011;16089;59.952;10.818;2023-12-29T05:50:37;4.53;;;0.45;;
28988;SDS011;16089;59.952;10.818;2023-12-29T05:53:03;2.80;;;0.55;;
28988;SDS011;16089;59.952;10.818;2023-12-29T05:55:30;1.45;;;0.47;;
28988;SDS011;16089;59.952;10.818;2023-12-29T05:57:57;1.60;;;0.55;;
28988;SDS011;16089;59.952;10.818;2023-12-29T06:00:23;2.13;;;0.50;;
28988;SDS011;16089;59.952;10.818;2023-12-29T06:02:49;1.85;;;0.52;;
28988;SDS011;16089;59.952;10.818;2023-12-29T06:05:16;2.97;;;0.68;;
28988;SDS011;16089;59.952;10.818;2023-12-29T06:07:44;1.67;;;0.70;;
28988;SDS011;16089;59.952;10.818;2023-12-29T06:10:10;1.55;;;0.60;;
28988;SDS011;16089;59.952;10.818;2023-12-29T06:12:37;2.38;;;0.70;;
28988;SDS011;16089;59.952;10.818;2023-12-29T06:15:03;2.25;;;0.65;;
28988;SDS011;16089;59.952;10.818;2023-12-29T06:17:30;1.52;;;0.40;;
28988;SDS011;16089;59.952;10.818;2023-12-29T06:19:57;2.20;;;0.68;;
28988;SDS011;16089;59.952;10.818;2023-12-29T06:22:26;2.35;;;0.50;;
28988;SDS011;16089;59.952;10.818;2023-12-29T06:24:54;4.13;;;0.75;;
28988;SDS011;16089;59.952;10.818;2023-12-29T06:27:20;4.00;;;1.10;;
28988;SDS011;16089;59.952;10.818;2023-12-29T06:29:47;3.67;;;1.10;;
28988;SDS011;16089;59.952;10.818;2023-12-29T06:32:13;4.32;;;0.90;;
28988;SDS011;16089;59.952;10.818;2023-12-29T06:34:40;4.63;;;1.20;;
28988;SDS011;16089;59.952;10.818;2023-12-29T06:37:06;3.08;;;0.90;;
28988;SDS011;16089;59.952;10.818;2023-12-29T06:39:33;4.90;;;1.08;;
28988;SDS011;16089;59.952;10.818;2023-12-29T06:42:01;2.63;;;0.85;;
28988;SDS011;16089;59.952;10.818;2023-12-29T06:44:27;1.58;;;0.43;;
28988;SDS011;16089;59.952;10.818;2023-12-29T06:46:54;2.17;;;0.68;;
28988;SDS011;16089;59.952;10.818;2023-12-29T06:49:20;2.40;;;0.73;;
28988;SDS011;16089;59.952;10.818;2023-12-29T06:51:46;1.63;;;0.60;;
28988;SDS011;16089;59.952;10.818;2023-12-29T06:54:13;1.65;;;0.47;;
28988;SDS011;16089;59.952;10.818;2023-12-29T06:56:39;1.17;;;0.40;;
28988;SDS011;16089;59.952;10.818;2023-12-29T06:59:07;1.75;;;0.50;;
28988;SDS011;16089;59.952;10.818;2023-12-29T07:01:33;1.33;;;0.40;;
28988;SDS011;16089;59.952;10.818;2023-12-29T07:04:00;2.90;;;0.60;;
28988;SDS011;16089;59.952;10.818;2023-12-29T07:06:26;1.15;;;0.50;;
28988;SDS011;16089;59.952;10.818;2023-12-29T07:08:53;3.40;;;0.52;;
28988;SDS011;16089;59.952;10.818;2023-12-29T07:11:19;2.58;;;0.70;;
28988;SDS011;16089;59.952;10.818;2023-12-29T07:13:45;1.50;;;0.60;;
28988;SDS011;16089;59.952;10.818;2023-12-29T07:16:13;2.50;;;0.60;;
28988;SDS011;16089;59.952;10.818;2023-12-29T07:18:40;0.73;;;0.30;;
28988;SDS011;16089;59.952;10.818;2023-12-29T07:21:07;1.52;;;0.43;;
28988;SDS011;16089;59.952;10.818;2023-12-29T07:23:33;1.55;;;0.60;;
28988;SDS011;16089;59.952;10.818;2023-12-29T07:26:00;1.25;;;0.43;;
28988;SDS011;16089;59.952;10.818;2023-12-29T07:28:26;1.05;;;0.30;;
28988;SDS011;16089;59.952;10.818;2023-12-29T07:30:53;1.80;;;0.50;;
28988;SDS011;16089;59.952;10.818;2023-12-29T07:33:20;3.13;;;0.70;;
28988;SDS011;16089;59.952;10.818;2023-12-29T07:35:47;1.75;;;0.60;;
28988;SDS011;16089;59.952;10.818;2023-12-29T07:38:13;1.40;;;0.60;;
28988;SDS011;16089;59.952;10.818;2023-12-29T07:40:40;1.23;;;0.50;;
28988;SDS011;16089;59.952;10.818;2023-12-29T07:43:06;1.40;;;0.50;;
28988;SDS011;16089;59.952;10.818;2023-12-29T07:45:32;1.30;;;0.52;;
28988;SDS011;16089;59.952;10.818;2023-12-29T07:47:59;3.15;;;0.50;;
28988;SDS011;16089;59.952;10.818;2023-12-29T07:50:27;1.13;;;0.40;;
28988;SDS011;16089;59.952;10.818;2023-12-29T07:52:53;1.95;;;0.50;;
28988;SDS011;16089;59.952;10.818;2023-12-29T07:55:19;2.92;;;0.60;;
28988;SDS011;16089;59.952;10.818;2023-12-29T07:57:46;4.40;;;0.68;;
28988;SDS011;16089;59.952;10.818;2023-12-29T08:00:13;0.50;;;0.28;;
28988;SDS011;16089;59.952;10.818;2023-12-29T08:02:40;1.13;;;0.50;;
28988;SDS011;16089;59.952;10.818;2023-12-29T08:05:06;2.80;;;0.80;;
28988;SDS011;16089;59.952;10.818;2023-12-29T08:07:35;3.47;;;0.50;;
28988;SDS011;16089;59.952;10.818;2023-12-29T08:10:02;2.13;;;0.85;;
28988;SDS011;16089;59.952;10.818;2023-12-29T08:12:29;2.42;;;0.50;;
28988;SDS011;16089;59.952;10.818;2023-12-29T08:14:58;2.28;;;0.55;;
28988;SDS011;16089;59.952;10.818;2023-12-29T08:17:24;3.35;;;0.60;;
28988;SDS011;16089;59.952;10.818;2023-12-29T08:19:51;2.42;;;0.60;;
28988;SDS011;16089;59.952;10.818;2023-12-29T08:22:18;3.17;;;0.60;;
28988;SDS011;16089;59.952;10.818;2023-12-29T08:24:46;1.80;;;0.60;;
28988;SDS011;16089;59.952;10.818;2023-12-29T08:27:13;1.70;;;0.55;;
28988;SDS011;16089;59.952;10.818;2023-12-29T08:29:39;3.03;;;0.68;;
28988;SDS011;16089;59.952;10.818;2023-12-29T08:32:06;4.35;;;1.17;;
28988;SDS011;16089;59.952;10.818;2023-12-29T08:34:32;2.08;;;0.70;;
28988;SDS011;16089;59.952;10.818;2023-12-29T08:36:59;3.22;;;0.70;;
28988;SDS011;16089;59.952;10.818;2023-12-29T08:39:25;2.75;;;0.98;;
28988;SDS011;16089;59.952;10.818;2023-12-29T08:41:53;2.20;;;0.75;;
28988;SDS011;16089;59.952;10.818;2023-12-29T08:44:19;5.53;;;1.10;;
28988;SDS011;16089;59.952;10.818;2023-12-29T08:46:46;4.88;;;1.48;;
28988;SDS011;16089;59.952;10.818;2023-12-29T08:49:12;2.33;;;0.80;;
28988;SDS011;16089;59.952;10.818;2023-12-29T08:51:39;4.63;;;1.42;;
28988;SDS011;16089;59.952;10.818;2023-12-29T08:54:05;3.35;;;1.17;;
28988;SDS011;16089;59.952;10.818;2023-12-29T08:56:30;7.55;;;3.00;;
28988;SDS011;16089;59.952;10.818;2023-12-29T08:58:58;7.90;;;3.20;;
28988;SDS011;16089;59.952;10.818;2023-12-29T09:01:25;13.25;;;3.42;;
28988;SDS011;16089;59.952;10.818;2023-12-29T09:03:51;4.93;;;1.20;;
28988;SDS011;16089;59.952;10.818;2023-12-29T09:06:18;4.75;;;0.93;;
28988;SDS011;16089;59.952;10.818;2023-12-29T09:08:45;3.58;;;1.20;;
28988;SDS011;16089;59.952;10.818;2023-12-29T09:11:11;4.57;;;1.98;;
28988;SDS011;16089;59.952;10.818;2023-12-29T09:13:37;5.78;;;1.40;;
28988;SDS011;16089;59.952;10.818;2023-12-29T09:16:05;4.18;;;0.93;;
28988;SDS011;16089;59.952;10.818;2023-12-29T09:18:32;4.00;;;1.20;;
28988;SDS011;16089;59.952;10.818;2023-12-29T09:20:59;4.35;;;1.38;;
28988;SDS011;16089;59.952;10.818;2023-12-29T09:23:25;3.90;;;1.00;;
28988;SDS011;16089;59.952;10.818;2023-12-29T09:25:51;2.95;;;1.25;;
28988;SDS011;16089;59.952;10.818;2023-12-29T09:28:18;3.03;;;1.05;;
28988;SDS011;16089;59.952;10.818;2023-12-29T09:30:44;2.20;;;1.00;;
28988;SDS011;16089;59.952;10.818;2023-12-29T09:33:12;5.20;;;1.02;;
28988;SDS011;16089;59.952;10.818;2023-12-29T09:35:39;4.32;;;1.00;;
28988;SDS011;16089;59.952;10.818;2023-12-29T09:38:05;7.45;;;1.45;;
28988;SDS011;16089;59.952;10.818;2023-12-29T09:40:31;2.33;;;0.90;;
28988;SDS011;16089;59.952;10.818;2023-12-29T09:42:59;2.88;;;1.02;;
28988;SDS011;16089;59.952;10.818;2023-12-29T09:45:26;4.00;;;1.30;;
28988;SDS011;16089;59.952;10.818;2023-12-29T09:47:53;2.97;;;0.90;;
28988;SDS011;16089;59.952;10.818;2023-12-29T09:50:22;3.95;;;0.98;;
28988;SDS011;16089;59.952;10.818;2023-12-29T09:52:49;10.10;;;3.83;;
28988;SDS011;16089;59.952;10.818;2023-12-29T09:55:15;6.55;;;1.17;;
28988;SDS011;16089;59.952;10.818;2023-12-29T09:57:42;5.65;;;2.63;;
28988;SDS011;16089;59.952;10.818;2023-12-29T10:00:10;5.53;;;1.33;;
28988;SDS011;16089;59.952;10.818;2023-12-29T10:02:37;2.08;;;0.90;;
28988;SDS011;16089;59.952;10.818;2023-12-29T10:05:03;1.95;;;0.90;;
28988;SDS011;16089;59.952;10.818;2023-12-29T10:07:36;2.50;;;1.10;;
28988;SDS011;16089;59.952;10.818;2023-12-29T10:10:03;3.67;;;1.08;;
28988;SDS011;16089;59.952;10.818;2023-12-29T10:12:31;3.30;;;0.95;;
28988;SDS011;16089;59.952;10.818;2023-12-29T10:15:01;3.70;;;1.20;;
28988;SDS011;16089;59.952;10.818;2023-12-29T10:17:33;2.53;;;1.00;;
28988;SDS011;16089;59.952;10.818;2023-12-29T10:20:03;2.72;;;0.90;;
28988;SDS011;16089;59.952;10.818;2023-12-29T10:22:38;1.30;;;0.57;;
28988;SDS011;16089;59.952;10.818;2023-12-29T10:25:07;3.45;;;1.08;;
28988;SDS011;16089;59.952;10.818;2023-12-29T10:27:34;3.50;;;1.17;;
28988;SDS011;16089;59.952;10.818;2023-12-29T10:30:01;2.70;;;0.80;;
28988;SDS011;16089;59.952;10.818;2023-12-29T10:32:28;1.30;;;0.70;;
28988;SDS011;16089;59.952;10.818;2023-12-29T10:35:07;2.50;;;0.98;;
28988;SDS011;16089;59.952;10.818;2023-12-29T10:37:34;3.00;;;1.25;;
28988;SDS011;16089;59.952;10.818;2023-12-29T10:40:02;1.88;;;0.88;;
28988;SDS011;16089;59.952;10.818;2023-12-29T10:42:28;1.83;;;0.70;;
28988;SDS011;16089;59.952;10.818;2023-12-29T10:45:04;2.75;;;0.88;;
28988;SDS011;16089;59.952;10.818;2023-12-29T10:47:30;3.65;;;0.82;;
28988;SDS011;16089;59.952;10.818;2023-12-29T10:49:58;4.78;;;1.00;;
28988;SDS011;16089;59.952;10.818;2023-12-29T10:52:24;2.60;;;0.90;;
28988;SDS011;16089;59.952;10.818;2023-12-29T10:54:54;2.13;;;0.80;;
28988;SDS011;16089;59.952;10.818;2023-12-29T10:57:31;3.25;;;1.00;;
28988;SDS011;16089;59.952;10.818;2023-12-29T10:59:57;2.25;;;0.93;;
28988;SDS011;16089;59.952;10.818;2023-12-29T11:02:25;3.85;;;0.95;;
28988;SDS011;16089;59.952;10.818;2023-12-29T11:04:51;2.70;;;0.80;;
28988;SDS011;16089;59.952;10.818;2023-12-29T11:07:30;2.35;;;0.80;;
28988;SDS011;16089;59.952;10.818;2023-12-29T11:09:59;1.73;;;0.70;;
28988;SDS011;16089;59.952;10.818;2023-12-29T11:12:26;2.25;;;0.77;;
28988;SDS011;16089;59.952;10.818;2023-12-29T11:14:53;2.72;;;0.80;;
28988;SDS011;16089;59.952;10.818;2023-12-29T11:17:20;3.65;;;0.70;;
28988;SDS011;16089;59.952;10.818;2023-12-29T11:19:47;3.05;;;0.70;;
28988;SDS011;16089;59.952;10.818;2023-12-29T11:22:13;2.58;;;0.70;;
28988;SDS011;16089;59.952;10.818;2023-12-29T11:24:40;1.88;;;0.50;;
28988;SDS011;16089;59.952;10.818;2023-12-29T11:27:07;1.65;;;0.63;;
28988;SDS011;16089;59.952;10.818;2023-12-29T11:29:33;2.58;;;0.80;;
28988;SDS011;16089;59.952;10.818;2023-12-29T11:32:01;3.25;;;0.70;;
28988;SDS011;16089;59.952;10.818;2023-12-29T11:34:31;1.42;;;0.70;;
28988;SDS011;16089;59.952;10.818;2023-12-29T11:37:01;1.55;;;0.60;;
28988;SDS011;16089;59.952;10.818;2023-12-29T11:39:37;1.67;;;0.70;;
28988;SDS011;16089;59.952;10.818;2023-12-29T11:42:05;4.32;;;0.60;;
28988;SDS011;16089;59.952;10.818;2023-12-29T11:44:34;2.58;;;0.80;;
28988;SDS011;16089;59.952;10.818;2023-12-29T11:47:02;2.38;;;0.65;;
28988;SDS011;16089;59.952;10.818;2023-12-29T11:49:33;1.73;;;0.77;;
28988;SDS011;16089;59.952;10.818;2023-12-29T11:52:32;2.05;;;0.55;;
28988;SDS011;16089;59.952;10.818;2023-12-29T11:55:03;4.15;;;0.70;;
28988;SDS011;16089;59.952;10.818;2023-12-29T11:57:32;3.03;;;0.70;;
28988;SDS011;16089;59.952;10.818;2023-12-29T12:00:00;2.17;;;0.60;;
28988;SDS011;16089;59.952;10.818;2023-12-29T12:02:28;2.25;;;0.50;;
28988;SDS011;16089;59.952;10.818;2023-12-29T12:04:55;2.10;;;0.50;;
28988;SDS011;16089;59.952;10.818;2023-12-29T12:12:44;3.88;;;0.60;;
28988;SDS011;16089;59.952;10.818;2023-12-29T12:17:53;1.75;;;0.60;;
28988;SDS011;16089;59.952;10.818;2023-12-29T12:20:20;1.65;;;0.60;;
28988;SDS011;16089;59.952;10.818;2023-12-29T12:22:47;2.72;;;0.70;;
28988;SDS011;16089;59.952;10.818;2023-12-29T12:25:15;4.85;;;1.00;;
28988;SDS011;16089;59.952;10.818;2023-12-29T12:27:42;1.73;;;0.60;;
28988;SDS011;16089;59.952;10.818;2023-12-29T12:30:09;2.00;;;0.60;;
28988;SDS011;16089;59.952;10.818;2023-12-29T12:32:35;1.45;;;0.52;;
28988;SDS011;16089;59.952;10.818;2023-12-29T12:35:04;2.83;;;0.77;;
28988;SDS011;16089;59.952;10.818;2023-12-29T12:37:39;2.75;;;0.60;;
28988;SDS011;16089;59.952;10.818;2023-12-29T12:40:06;2.65;;;0.80;;
28988;SDS011;16089;59.952;10.818;2023-12-29T12:42:34;4.53;;;0.90;;
28988;SDS011;16089;59.952;10.818;2023-12-29T12:45:04;2.83;;;1.20;;
28988;SDS011;16089;59.952;10.818;2023-12-29T12:47:33;1.30;;;0.63;;
28988;SDS011;16089;59.952;10.818;2023-12-29T12:50:00;3.13;;;1.20;;
28988;SDS011;16089;59.952;10.818;2023-12-29T12:52:31;4.40;;;1.25;;
28988;SDS011;16089;59.952;10.818;2023-12-29T12:54:57;2.13;;;0.80;;
28988;SDS011;16089;59.952;10.818;2023-12-29T12:57:24;1.77;;;0.70;;
28988;SDS011;16089;59.952;10.818;2023-12-29T12:59:50;2.13;;;1.00;;
28988;SDS011;16089;59.952;10.818;2023-12-29T13:02:19;3.95;;;0.90;;
28988;SDS011;16089;59.952;10.818;2023-12-29T13:04:45;3.42;;;1.27;;
28988;SDS011;16089;59.952;10.818;2023-12-29T13:07:14;2.22;;;0.82;;
28988;SDS011;16089;59.952;10.818;2023-12-29T13:09:42;6.50;;;1.95;;
28988;SDS011;16089;59.952;10.818;2023-12-29T13:12:09;5.53;;;1.60;;
28988;SDS011;16089;59.952;10.818;2023-12-29T13:14:36;8.95;;;2.08;;
28988;SDS011;16089;59.952;10.818;2023-12-29T13:17:06;4.88;;;2.08;;
28988;SDS011;16089;59.952;10.818;2023-12-29T13:19:32;2.90;;;1.20;;
28988;SDS011;16089;59.952;10.818;2023-12-29T13:21:59;2.70;;;0.80;;
28988;SDS011;16089;59.952;10.818;2023-12-29T13:24:26;2.47;;;0.88;;
28988;SDS011;16089;59.952;10.818;2023-12-29T13:26:54;2.20;;;0.88;;
28988;SDS011;16089;59.952;10.818;2023-12-29T13:29:21;4.90;;;1.00;;
28988;SDS011;16089;59.952;10.818;2023-12-29T13:31:49;4.43;;;2.08;;
28988;SDS011;16089;59.952;10.818;2023-12-29T13:34:17;3.42;;;1.45;;
28988;SDS011;16089;59.952;10.818;2023-12-29T13:36:47;2.72;;;1.08;;
28988;SDS011;16089;59.952;10.818;2023-12-29T13:39:16;3.72;;;1.00;;
28988;SDS011;16089;59.952;10.818;2023-12-29T13:41:46;2.25;;;0.90;;
28988;SDS011;16089;59.952;10.818;2023-12-29T13:44:15;1.95;;;0.80;;
28988;SDS011;16089;59.952;10.818;2023-12-29T13:46:42;2.42;;;0.90;;
28988;SDS011;16089;59.952;10.818;2023-12-29T13:49:08;2.38;;;0.85;;
28988;SDS011;16089;59.952;10.818;2023-12-29T13:51:37;2.42;;;0.90;;
28988;SDS011;16089;59.952;10.818;2023-12-29T13:54:03;3.00;;;0.90;;
28988;SDS011;16089;59.952;10.818;2023-12-29T13:56:30;2.92;;;1.00;;
28988;SDS011;16089;59.952;10.818;2023-12-29T13:58:56;2.15;;;0.85;;
28988;SDS011;16089;59.952;10.818;2023-12-29T14:01:31;3.38;;;0.70;;
28988;SDS011;16089;59.952;10.818;2023-12-29T14:04:00;1.23;;;0.50;;
28988;SDS011;16089;59.952;10.818;2023-12-29T14:06:29;2.00;;;0.75;;
28988;SDS011;16089;59.952;10.818;2023-12-29T14:08:56;2.30;;;0.80;;
28988;SDS011;16089;59.952;10.818;2023-12-29T14:11:22;1.33;;;0.70;;
28988;SDS011;16089;59.952;10.818;2023-12-29T14:13:49;2.33;;;1.00;;
28988;SDS011;16089;59.952;10.818;2023-12-29T14:16:15;3.00;;;0.90;;
28988;SDS011;16089;59.952;10.818;2023-12-29T14:18:55;2.38;;;0.95;;
28988;SDS011;16089;59.952;10.818;2023-12-29T14:21:23;3.38;;;1.00;;
28988;SDS011;16089;59.952;10.818;2023-12-29T14:24:06;4.50;;;1.00;;
28988;SDS011;16089;59.952;10.818;2023-12-29T14:26:33;1.92;;;0.80;;
28988;SDS011;16089;59.952;10.818;2023-12-29T14:29:00;3.17;;;1.05;;
28988;SDS011;16089;59.952;10.818;2023-12-29T14:31:27;3.10;;;0.98;;
28988;SDS011;16089;59.952;10.818;2023-12-29T14:33:53;3.17;;;0.93;;
28988;SDS011;16089;59.952;10.818;2023-12-29T14:36:21;2.58;;;1.25;;
28988;SDS011;16089;59.952;10.818;2023-12-29T14:38:47;2.83;;;1.17;;
28988;SDS011;16089;59.952;10.818;2023-12-29T14:41:14;2.47;;;1.00;;